sensor_id;sensor_type;location;lat;lon;timestamp;P1;durP1;ratioP1;P2;durP2;ratioP2
13061;SDS011;6597;52.218;9.882;2023-08-17T00:01:17;10.65;;;3.45;;
13061;SDS011;6597;52.218;9.882;2023-08-17T00:03:43;11.52;;;3.47;;
13061;SDS011;6597;52.218;9.882;2023-08-17T00:06:10;7.65;;;2.70;;
13061;SDS011;6597;52.218;9.882;2023-08-17T00:08:36;15.40;;;3.90;;
13061;SDS011;6597;52.218;9.882;2023-08-17T00:11:03;15.38;;;3.30;;
13061;SDS011;6597;52.218;9.882;2023-08-17T00:13:29;15.43;;;3.65;;
13061;SDS011;6597;52.218;9.882;2023-08-17T00:15:56;28.65;;;3.85;;
13061;SDS011;6597;52.218;9.882;2023-08-17T00:18:24;10.70;;;3.97;;
13061;SDS011;6597;52.218;9.882;2023-08-17T00:20:50;13.75;;;3.72;;
13061;SDS011;6597;52.218;9.882;2023-08-17T00:23:17;11.98;;;3.58;;
13061;SDS011;6597;52.218;9.882;2023-08-17T00:25:45;10.75;;;3.60;;
13061;SDS011;6597;52.218;9.882;2023-08-17T00:28:12;15.07;;;4.07;;
13061;SDS011;6597;52.218;9.882;2023-08-17T00:30:39;9.90;;;3.38;;
13061;SDS011;6597;52.218;9.882;2023-08-17T00:33:06;11.20;;;3.58;;
13061;SDS011;6597;52.218;9.882;2023-08-17T00:35:34;14.75;;;4.25;;
13061;SDS011;6597;52.218;9.882;2023-08-17T00:38:00;15.20;;;3.97;;
13061;SDS011;6597;52.218;9.882;2023-08-17T00:40:27;11.27;;;3.53;;
13061;SDS011;6597;52.218;9.882;2023-08-17T00:42:53;11.80;;;3.65;;
13061;SDS011;6597;52.218;9.882;2023-08-17T00:45:21;12.80;;;4.03;;
13061;SDS011;6597;52.218;9.882;2023-08-17T00:47:48;8.80;;;2.95;;
13061;SDS011;6597;52.218;9.882;2023-08-17T00:50:15;13.27;;;3.50;;
13061;SDS011;6597;52.218;9.882;2023-08-17T00:52:43;15.02;;;3.58;;
13061;SDS011;6597;52.218;9.882;2023-08-17T00:55:10;10.05;;;3.47;;
13061;SDS011;6597;52.218;9.882;2023-08-17T00:57:37;8.00;;;3.15;;
13061;SDS011;6597;52.218;9.882;2023-08-17T01:00:06;9.15;;;3.63;;
13061;SDS011;6597;52.218;9.882;2023-08-17T01:02:34;16.77;;;4.28;;
13061;SDS011;6597;52.218;9.882;2023-08-17T01:05:01;13.43;;;4.15;;
13061;SDS011;6597;52.218;9.882;2023-08-17T01:07:28;24.20;;;4.28;;
13061;SDS011;6597;52.218;9.882;2023-08-17T01:09:56;13.80;;;3.60;;
13061;SDS011;6597;52.218;9.882;2023-08-17T01:12:24;24.08;;;5.05;;
13061;SDS011;6597;52.218;9.882;2023-08-17T01:14:59;19.80;;;4.22;;
13061;SDS011;6597;52.218;9.882;2023-08-17T01:17:33;23.55;;;4.20;;
13061;SDS011;6597;52.218;9.882;2023-08-17T01:20:04;10.00;;;4.35;;
13061;SDS011;6597;52.218;9.882;2023-08-17T01:22:34;7.07;;;3.80;;
13061;SDS011;6597;52.218;9.882;2023-08-17T01:25:04;5.07;;;3.60;;
13061;SDS011;6597;52.218;9.882;2023-08-17T01:27:33;7.28;;;3.95;;
13061;SDS011;6597;52.218;9.882;2023-08-17T01:30:03;13.35;;;4.68;;
13061;SDS011;6597;52.218;9.882;2023-08-17T01:32:32;8.68;;;3.75;;
13061;SDS011;6597;52.218;9.882;2023-08-17T01:35:08;7.90;;;3.58;;
13061;SDS011;6597;52.218;9.882;2023-08-17T01:37:40;5.78;;;3.45;;
13061;SDS011;6597;52.218;9.882;2023-08-17T01:40:10;6.70;;;3.63;;
13061;SDS011;6597;52.218;9.882;2023-08-17T01:42:38;5.90;;;3.63;;
13061;SDS011;6597;52.218;9.882;2023-08-17T01:45:06;3.85;;;2.63;;
13061;SDS011;6597;52.218;9.882;2023-08-17T01:47:33;10.07;;;3.90;;
13061;SDS011;6597;52.218;9.882;2023-08-17T01:50:01;6.88;;;3.78;;
13061;SDS011;6597;52.218;9.882;2023-08-17T01:52:27;8.07;;;4.07;;
13061;SDS011;6597;52.218;9.882;2023-08-17T01:54:54;6.93;;;3.78;;
13061;SDS011;6597;52.218;9.882;2023-08-17T01:57:22;13.35;;;4.82;;
13061;SDS011;6597;52.218;9.882;2023-08-17T01:59:49;14.88;;;4.03;;
13061;SDS011;6597;52.218;9.882;2023-08-17T02:02:15;11.52;;;4.45;;
13061;SDS011;6597;52.218;9.882;2023-08-17T02:04:42;9.93;;;4.32;;
13061;SDS011;6597;52.218;9.882;2023-08-17T02:07:09;13.38;;;4.50;;
13061;SDS011;6597;52.218;9.882;2023-08-17T02:09:36;15.40;;;5.25;;
13061;SDS011;6597;52.218;9.882;2023-08-17T02:12:04;10.70;;;4.63;;
13061;SDS011;6597;52.218;9.882;2023-08-17T02:14:34;12.35;;;4.38;;
13061;SDS011;6597;52.218;9.882;2023-08-17T02:17:01;10.18;;;3.70;;
13061;SDS011;6597;52.218;9.882;2023-08-17T02:19:27;9.55;;;4.53;;
13061;SDS011;6597;52.218;9.882;2023-08-17T02:21:54;7.40;;;3.80;;
13061;SDS011;6597;52.218;9.882;2023-08-17T02:24:20;7.18;;;4.00;;
13061;SDS011;6597;52.218;9.882;2023-08-17T02:26:48;7.32;;;4.15;;
13061;SDS011;6597;52.218;9.882;2023-08-17T02:29:14;8.77;;;4.40;;
13061;SDS011;6597;52.218;9.882;2023-08-17T02:31:42;12.18;;;4.63;;
13061;SDS011;6597;52.218;9.882;2023-08-17T02:34:09;11.40;;;4.53;;
13061;SDS011;6597;52.218;9.882;2023-08-17T02:36:36;10.45;;;4.00;;
13061;SDS011;6597;52.218;9.882;2023-08-17T02:39:02;16.05;;;4.75;;
13061;SDS011;6597;52.218;9.882;2023-08-17T02:41:29;16.10;;;4.88;;
13061;SDS011;6597;52.218;9.882;2023-08-17T02:43:57;18.63;;;4.88;;
13061;SDS011;6597;52.218;9.882;2023-08-17T02:46:24;17.13;;;4.53;;
13061;SDS011;6597;52.218;9.882;2023-08-17T02:48:52;12.57;;;4.35;;
13061;SDS011;6597;52.218;9.882;2023-08-17T02:51:18;17.25;;;4.65;;
13061;SDS011;6597;52.218;9.882;2023-08-17T02:53:45;14.30;;;4.15;;
13061;SDS011;6597;52.218;9.882;2023-08-17T02:56:11;12.75;;;4.40;;
13061;SDS011;6597;52.218;9.882;2023-08-17T02:58:38;13.73;;;4.25;;
13061;SDS011;6597;52.218;9.882;2023-08-17T03:01:05;20.33;;;5.03;;
13061;SDS011;6597;52.218;9.882;2023-08-17T03:03:32;12.95;;;3.92;;
13061;SDS011;6597;52.218;9.882;2023-08-17T03:06:00;17.63;;;4.40;;
13061;SDS011;6597;52.218;9.882;2023-08-17T03:08:27;3.80;;;3.08;;
13061;SDS011;6597;52.218;9.882;2023-08-17T03:10:54;18.23;;;4.45;;
13061;SDS011;6597;52.218;9.882;2023-08-17T03:13:20;16.00;;;4.95;;
13061;SDS011;6597;52.218;9.882;2023-08-17T03:15:47;19.08;;;4.63;;
13061;SDS011;6597;52.218;9.882;2023-08-17T03:18:15;9.63;;;3.80;;
13061;SDS011;6597;52.218;9.882;2023-08-17T03:20:41;11.20;;;4.15;;
13061;SDS011;6597;52.218;9.882;2023-08-17T03:23:11;21.30;;;5.88;;
13061;SDS011;6597;52.218;9.882;2023-08-17T03:25:38;18.58;;;5.50;;
13061;SDS011;6597;52.218;9.882;2023-08-17T03:28:04;18.17;;;4.38;;
13061;SDS011;6597;52.218;9.882;2023-08-17T03:30:31;13.23;;;3.60;;
13061;SDS011;6597;52.218;9.882;2023-08-17T03:32:58;14.73;;;3.80;;
13061;SDS011;6597;52.218;9.882;2023-08-17T03:35:24;4.57;;;2.78;;
13061;SDS011;6597;52.218;9.882;2023-08-17T03:37:51;10.57;;;2.95;;
13061;SDS011;6597;52.218;9.882;2023-08-17T03:40:19;8.98;;;3.60;;
13061;SDS011;6597;52.218;9.882;2023-08-17T03:42:46;9.02;;;3.10;;
13061;SDS011;6597;52.218;9.882;2023-08-17T03:45:13;9.55;;;3.25;;
13061;SDS011;6597;52.218;9.882;2023-08-17T03:47:39;3.17;;;2.47;;
13061;SDS011;6597;52.218;9.882;2023-08-17T03:50:06;14.02;;;3.63;;
13061;SDS011;6597;52.218;9.882;2023-08-17T03:52:33;6.40;;;2.90;;
13061;SDS011;6597;52.218;9.882;2023-08-17T03:55:00;8.60;;;3.10;;
13061;SDS011;6597;52.218;9.882;2023-08-17T03:57:28;9.30;;;3.28;;
13061;SDS011;6597;52.218;9.882;2023-08-17T03:59:54;10.85;;;3.28;;
13061;SDS011;6597;52.218;9.882;2023-08-17T04:02:21;13.13;;;3.22;;
13061;SDS011;6597;52.218;9.882;2023-08-17T04:04:48;8.63;;;3.25;;
13061;SDS011;6597;52.218;9.882;2023-08-17T04:07:20;16.27;;;3.63;;
13061;SDS011;6597;52.218;9.882;2023-08-17T04:09:47;11.95;;;3.53;;
13061;SDS011;6597;52.218;9.882;2023-08-17T04:12:13;8.32;;;3.00;;
13061;SDS011;6597;52.218;9.882;2023-08-17T04:14:42;9.27;;;3.03;;
13061;SDS011;6597;52.218;9.882;2023-08-17T04:17:08;13.70;;;3.67;;
13061;SDS011;6597;52.218;9.882;2023-08-17T04:19:35;6.22;;;3.08;;
13061;SDS011;6597;52.218;9.882;2023-08-17T04:22:01;9.65;;;3.50;;
13061;SDS011;6597;52.218;9.882;2023-08-17T04:24:28;13.93;;;3.53;;
13061;SDS011;6597;52.218;9.882;2023-08-17T04:26:54;14.85;;;4.28;;
13061;SDS011;6597;52.218;9.882;2023-08-17T04:29:21;9.68;;;3.50;;
13061;SDS011;6597;52.218;9.882;2023-08-17T04:31:49;9.90;;;3.47;;
13061;SDS011;6597;52.218;9.882;2023-08-17T04:34:15;8.55;;;3.35;;
13061;SDS011;6597;52.218;9.882;2023-08-17T04:36:42;12.27;;;3.83;;
13061;SDS011;6597;52.218;9.882;2023-08-17T04:39:08;7.40;;;3.25;;
13061;SDS011;6597;52.218;9.882;2023-08-17T04:41:35;6.70;;;4.03;;
13061;SDS011;6597;52.218;9.882;2023-08-17T04:44:05;8.45;;;3.47;;
13061;SDS011;6597;52.218;9.882;2023-08-17T04:46:32;7.07;;;3.80;;
13061;SDS011;6597;52.218;9.882;2023-08-17T04:49:00;6.10;;;3.63;;
13061;SDS011;6597;52.218;9.882;2023-08-17T04:51:26;8.48;;;3.92;;
13061;SDS011;6597;52.218;9.882;2023-08-17T04:53:55;8.65;;;4.05;;
13061;SDS011;6597;52.218;9.882;2023-08-17T04:56:21;7.28;;;3.90;;
13061;SDS011;6597;52.218;9.882;2023-08-17T04:58:48;7.28;;;3.75;;
13061;SDS011;6597;52.218;9.882;2023-08-17T05:01:16;7.80;;;3.97;;
13061;SDS011;6597;52.218;9.882;2023-08-17T05:03:43;7.38;;;3.92;;
13061;SDS011;6597;52.218;9.882;2023-08-17T05:06:11;9.57;;;4.13;;
13061;SDS011;6597;52.218;9.882;2023-08-17T05:08:38;9.52;;;3.53;;
13061;SDS011;6597;52.218;9.882;2023-08-17T05:11:05;6.45;;;3.90;;
13061;SDS011;6597;52.218;9.882;2023-08-17T05:13:31;7.68;;;3.60;;
13061;SDS011;6597;52.218;9.882;2023-08-17T05:16:01;5.63;;;3.50;;
13061;SDS011;6597;52.218;9.882;2023-08-17T05:18:29;9.10;;;3.00;;
13061;SDS011;6597;52.218;9.882;2023-08-17T05:20:55;6.68;;;3.92;;
13061;SDS011;6597;52.218;9.882;2023-08-17T05:23:23;7.65;;;3.95;;
13061;SDS011;6597;52.218;9.882;2023-08-17T05:25:50;7.75;;;4.45;;
13061;SDS011;6597;52.218;9.882;2023-08-17T05:28:17;7.63;;;4.22;;
13061;SDS011;6597;52.218;9.882;2023-08-17T05:30:43;10.18;;;4.25;;
13061;SDS011;6597;52.218;9.882;2023-08-17T05:33:10;9.32;;;4.50;;
13061;SDS011;6597;52.218;9.882;2023-08-17T05:35:37;9.65;;;5.40;;
13061;SDS011;6597;52.218;9.882;2023-08-17T05:38:04;6.47;;;3.53;;
13061;SDS011;6597;52.218;9.882;2023-08-17T05:40:32;6.10;;;3.83;;
13061;SDS011;6597;52.218;9.882;2023-08-17T05:42:58;10.45;;;5.22;;
13061;SDS011;6597;52.218;9.882;2023-08-17T05:45:25;7.22;;;3.67;;
13061;SDS011;6597;52.218;9.882;2023-08-17T05:47:51;6.82;;;4.32;;
13061;SDS011;6597;52.218;9.882;2023-08-17T05:50:18;10.95;;;4.78;;
13061;SDS011;6597;52.218;9.882;2023-08-17T05:52:45;9.30;;;4.75;;
13061;SDS011;6597;52.218;9.882;2023-08-17T05:55:12;8.40;;;4.95;;
13061;SDS011;6597;52.218;9.882;2023-08-17T05:57:40;8.48;;;5.20;;
13061;SDS011;6597;52.218;9.882;2023-08-17T06:00:07;9.13;;;5.43;;
13061;SDS011;6597;52.218;9.882;2023-08-17T06:02:37;7.68;;;4.95;;
13061;SDS011;6597;52.218;9.882;2023-08-17T06:05:04;9.20;;;4.90;;
13061;SDS011;6597;52.218;9.882;2023-08-17T06:07:32;7.53;;;4.78;;
13061;SDS011;6597;52.218;9.882;2023-08-17T06:09:59;5.40;;;4.55;;
13061;SDS011;6597;52.218;9.882;2023-08-17T06:12:26;7.53;;;4.85;;
13061;SDS011;6597;52.218;9.882;2023-08-17T06:14:53;7.25;;;4.90;;
13061;SDS011;6597;52.218;9.882;2023-08-17T06:17:20;6.32;;;4.32;;
13061;SDS011;6597;52.218;9.882;2023-08-17T06:19:46;7.55;;;4.68;;
13061;SDS011;6597;52.218;9.882;2023-08-17T06:22:13;8.30;;;5.07;;
13061;SDS011;6597;52.218;9.882;2023-08-17T06:24:39;8.02;;;5.35;;
13061;SDS011;6597;52.218;9.882;2023-08-17T06:27:06;7.97;;;4.82;;
13061;SDS011;6597;52.218;9.882;2023-08-17T06:29:33;9.52;;;5.38;;
13061;SDS011;6597;52.218;9.882;2023-08-17T06:32:00;6.18;;;4.93;;
13061;SDS011;6597;52.218;9.882;2023-08-17T06:34:27;10.45;;;5.57;;
13061;SDS011;6597;52.218;9.882;2023-08-17T06:36:57;13.88;;;5.30;;
13061;SDS011;6597;52.218;9.882;2023-08-17T06:39:24;12.27;;;5.30;;
13061;SDS011;6597;52.218;9.882;2023-08-17T06:41:51;11.55;;;5.78;;
13061;SDS011;6597;52.218;9.882;2023-08-17T06:44:18;7.78;;;5.20;;
13061;SDS011;6597;52.218;9.882;2023-08-17T06:46:44;7.88;;;4.95;;
13061;SDS011;6597;52.218;9.882;2023-08-17T06:49:12;9.13;;;5.65;;
13061;SDS011;6597;52.218;9.882;2023-08-17T06:51:39;9.18;;;5.40;;
13061;SDS011;6597;52.218;9.882;2023-08-17T06:54:07;8.05;;;5.03;;
13061;SDS011;6597;52.218;9.882;2023-08-17T06:56:33;9.88;;;5.97;;
13061;SDS011;6597;52.218;9.882;2023-08-17T06:59:00;7.50;;;4.75;;
13061;SDS011;6597;52.218;9.882;2023-08-17T07:01:28;7.78;;;5.35;;
13061;SDS011;6597;52.218;9.882;2023-08-17T07:03:54;7.20;;;4.97;;
13061;SDS011;6597;52.218;9.882;2023-08-17T07:06:23;6.28;;;4.63;;
13061;SDS011;6597;52.218;9.882;2023-08-17T07:08:50;7.07;;;4.63;;
13061;SDS011;6597;52.218;9.882;2023-08-17T07:11:17;8.50;;;4.82;;
13061;SDS011;6597;52.218;9.882;2023-08-17T07:13:44;6.07;;;4.45;;
13061;SDS011;6597;52.218;9.882;2023-08-17T07:16:11;14.45;;;4.88;;
13061;SDS011;6597;52.218;9.882;2023-08-17T07:18:37;5.00;;;3.83;;
13061;SDS011;6597;52.218;9.882;2023-08-17T07:21:04;9.77;;;4.65;;
13061;SDS011;6597;52.218;9.882;2023-08-17T07:23:32;7.50;;;4.85;;
13061;SDS011;6597;52.218;9.882;2023-08-17T07:25:58;9.00;;;4.35;;
13061;SDS011;6597;52.218;9.882;2023-08-17T07:28:25;9.10;;;4.43;;
13061;SDS011;6597;52.218;9.882;2023-08-17T07:30:51;7.68;;;4.68;;
13061;SDS011;6597;52.218;9.882;2023-08-17T07:33:18;9.65;;;4.22;;
13061;SDS011;6597;52.218;9.882;2023-08-17T07:35:44;6.20;;;4.53;;
13061;SDS011;6597;52.218;9.882;2023-08-17T07:38:11;7.10;;;3.92;;
13061;SDS011;6597;52.218;9.882;2023-08-17T07:40:39;7.03;;;3.90;;
13061;SDS011;6597;52.218;9.882;2023-08-17T07:43:07;8.93;;;4.47;;
13061;SDS011;6597;52.218;9.882;2023-08-17T07:45:34;7.00;;;4.82;;
13061;SDS011;6597;52.218;9.882;2023-08-17T07:48:00;8.38;;;4.35;;
13061;SDS011;6597;52.218;9.882;2023-08-17T07:50:27;6.32;;;4.00;;
13061;SDS011;6597;52.218;9.882;2023-08-17T07:52:54;9.35;;;4.63;;
13061;SDS011;6597;52.218;9.882;2023-08-17T07:55:20;7.90;;;4.00;;
13061;SDS011;6597;52.218;9.882;2023-08-17T07:57:48;9.30;;;5.00;;
13061;SDS011;6597;52.218;9.882;2023-08-17T08:00:15;5.15;;;3.63;;
13061;SDS011;6597;52.218;9.882;2023-08-17T08:02:42;14.30;;;4.18;;
13061;SDS011;6597;52.218;9.882;2023-08-17T08:05:09;6.85;;;4.15;;
13061;SDS011;6597;52.218;9.882;2023-08-17T08:07:35;7.03;;;4.03;;
13061;SDS011;6597;52.218;9.882;2023-08-17T08:10:02;7.78;;;3.78;;
13061;SDS011;6597;52.218;9.882;2023-08-17T08:12:29;6.32;;;4.05;;
13061;SDS011;6597;52.218;9.882;2023-08-17T08:14:56;8.95;;;4.30;;
13061;SDS011;6597;52.218;9.882;2023-08-17T08:17:23;7.80;;;4.28;;
13061;SDS011;6597;52.218;9.882;2023-08-17T08:19:49;5.60;;;3.80;;
13061;SDS011;6597;52.218;9.882;2023-08-17T08:22:17;9.55;;;4.28;;
13061;SDS011;6597;52.218;9.882;2023-08-17T08:24:43;6.05;;;3.72;;
13061;SDS011;6597;52.218;9.882;2023-08-17T08:27:10;11.77;;;4.75;;
13061;SDS011;6597;52.218;9.882;2023-08-17T08:29:36;11.23;;;4.72;;
13061;SDS011;6597;52.218;9.882;2023-08-17T08:32:04;5.28;;;4.03;;
13061;SDS011;6597;52.218;9.882;2023-08-17T08:34:31;5.88;;;4.10;;
13061;SDS011;6597;52.218;9.882;2023-08-17T08:36:57;9.65;;;4.22;;
13061;SDS011;6597;52.218;9.882;2023-08-17T08:39:25;9.10;;;4.78;;
13061;SDS011;6597;52.218;9.882;2023-08-17T08:41:51;11.55;;;4.90;;
13061;SDS011;6597;52.218;9.882;2023-08-17T08:44:18;9.30;;;4.82;;
13061;SDS011;6597;52.218;9.882;2023-08-17T08:46:45;8.25;;;5.05;;
13061;SDS011;6597;52.218;9.882;2023-08-17T08:49:13;6.53;;;4.07;;
13061;SDS011;6597;52.218;9.882;2023-08-17T08:51:46;10.60;;;6.78;;
13061;SDS011;6597;52.218;9.882;2023-08-17T08:54:18;7.47;;;4.53;;
13061;SDS011;6597;52.218;9.882;2023-08-17T08:56:47;8.68;;;5.22;;
13061;SDS011;6597;52.218;9.882;2023-08-17T08:59:20;8.90;;;4.68;;
13061;SDS011;6597;52.218;9.882;2023-08-17T09:01:47;8.98;;;5.03;;
13061;SDS011;6597;52.218;9.882;2023-08-17T09:04:15;7.28;;;4.80;;
13061;SDS011;6597;52.218;9.882;2023-08-17T09:06:42;10.40;;;5.28;;
13061;SDS011;6597;52.218;9.882;2023-08-17T09:09:09;11.18;;;6.00;;
13061;SDS011;6597;52.218;9.882;2023-08-17T09:11:37;7.82;;;5.05;;
13061;SDS011;6597;52.218;9.882;2023-08-17T09:14:05;10.57;;;5.38;;
13061;SDS011;6597;52.218;9.882;2023-08-17T09:16:34;12.60;;;6.13;;
13061;SDS011;6597;52.218;9.882;2023-08-17T09:19:00;11.38;;;5.60;;
13061;SDS011;6597;52.218;9.882;2023-08-17T09:21:30;11.30;;;5.70;;
13061;SDS011;6597;52.218;9.882;2023-08-17T09:23:58;9.43;;;5.30;;
13061;SDS011;6597;52.218;9.882;2023-08-17T09:26:24;9.20;;;5.13;;
13061;SDS011;6597;52.218;9.882;2023-08-17T09:28:51;11.00;;;5.63;;
13061;SDS011;6597;52.218;9.882;2023-08-17T09:31:20;9.40;;;5.20;;
13061;SDS011;6597;52.218;9.882;2023-08-17T09:33:48;18.45;;;5.38;;
13061;SDS011;6597;52.218;9.882;2023-08-17T09:36:19;9.32;;;5.40;;
13061;SDS011;6597;52.218;9.882;2023-08-17T09:38:48;9.05;;;5.05;;
13061;SDS011;6597;52.218;9.882;2023-08-17T09:41:16;8.50;;;4.70;;
13061;SDS011;6597;52.218;9.882;2023-08-17T09:43:43;9.93;;;5.00;;
13061;SDS011;6597;52.218;9.882;2023-08-17T09:46:10;10.70;;;4.78;;
13061;SDS011;6597;52.218;9.882;2023-08-17T09:48:37;8.23;;;4.82;;
13061;SDS011;6597;52.218;9.882;2023-08-17T09:51:03;10.30;;;4.57;;
13061;SDS011;6597;52.218;9.882;2023-08-17T09:53:34;9.57;;;4.63;;
13061;SDS011;6597;52.218;9.882;2023-08-17T09:56:04;8.38;;;4.45;;
13061;SDS011;6597;52.218;9.882;2023-08-17T09:58:32;8.25;;;4.53;;
13061;SDS011;6597;52.218;9.882;2023-08-17T10:00:59;7.32;;;4.15;;
13061;SDS011;6597;52.218;9.882;2023-08-17T10:03:30;10.13;;;4.60;;
13061;SDS011;6597;52.218;9.882;2023-08-17T10:06:01;7.40;;;3.90;;
13061;SDS011;6597;52.218;9.882;2023-08-17T10:08:31;9.02;;;4.32;;
13061;SDS011;6597;52.218;9.882;2023-08-17T10:11:02;7.95;;;4.15;;
13061;SDS011;6597;52.218;9.882;2023-08-17T10:13:35;5.97;;;3.40;;
13061;SDS011;6597;52.218;9.882;2023-08-17T10:16:06;6.82;;;3.60;;
13061;SDS011;6597;52.218;9.882;2023-08-17T10:18:47;7.00;;;3.83;;
13061;SDS011;6597;52.218;9.882;2023-08-17T10:21:20;8.85;;;4.00;;
13061;SDS011;6597;52.218;9.882;2023-08-17T10:23:49;8.52;;;4.07;;
13061;SDS011;6597;52.218;9.882;2023-08-17T10:26:17;4.15;;;3.20;;
13061;SDS011;6597;52.218;9.882;2023-08-17T10:28:44;12.00;;;3.92;;
13061;SDS011;6597;52.218;9.882;2023-08-17T10:31:12;8.18;;;4.65;;
13061;SDS011;6597;52.218;9.882;2023-08-17T10:33:40;8.32;;;4.07;;
13061;SDS011;6597;52.218;9.882;2023-08-17T10:36:10;10.60;;;4.60;;
13061;SDS011;6597;52.218;9.882;2023-08-17T10:38:38;7.22;;;4.05;;
13061;SDS011;6597;52.218;9.882;2023-08-17T10:41:08;9.82;;;4.35;;
13061;SDS011;6597;52.218;9.882;2023-08-17T10:46:31;7.05;;;4.03;;
13061;SDS011;6597;52.218;9.882;2023-08-17T10:49:03;8.57;;;4.13;;
13061;SDS011;6597;52.218;9.882;2023-08-17T10:51:30;8.38;;;4.38;;
13061;SDS011;6597;52.218;9.882;2023-08-17T10:53:58;5.95;;;3.75;;
13061;SDS011;6597;52.218;9.882;2023-08-17T10:56:26;9.43;;;4.72;;
13061;SDS011;6597;52.218;9.882;2023-08-17T10:58:53;9.90;;;4.97;;
13061;SDS011;6597;52.218;9.882;2023-08-17T11:01:31;11.85;;;5.10;;
13061;SDS011;6597;52.218;9.882;2023-08-17T11:06:43;11.13;;;5.25;;
13061;SDS011;6597;52.218;9.882;2023-08-17T11:09:11;16.60;;;5.50;;
13061;SDS011;6597;52.218;9.882;2023-08-17T11:11:38;11.95;;;6.00;;
13061;SDS011;6597;52.218;9.882;2023-08-17T11:14:04;11.23;;;5.80;;
13061;SDS011;6597;52.218;9.882;2023-08-17T11:16:32;9.77;;;5.68;;
13061;SDS011;6597;52.218;9.882;2023-08-17T11:18:59;12.02;;;6.55;;
13061;SDS011;6597;52.218;9.882;2023-08-17T11:21:26;11.70;;;7.00;;
13061;SDS011;6597;52.218;9.882;2023-08-17T11:23:55;10.95;;;5.78;;
13061;SDS011;6597;52.218;9.882;2023-08-17T11:26:22;12.32;;;6.22;;
13061;SDS011;6597;52.218;9.882;2023-08-17T11:28:49;13.43;;;6.82;;
13061;SDS011;6597;52.218;9.882;2023-08-17T11:31:16;11.65;;;6.50;;
13061;SDS011;6597;52.218;9.882;2023-08-17T11:33:44;10.68;;;5.90;;
13061;SDS011;6597;52.218;9.882;2023-08-17T11:36:11;15.60;;;6.35;;
13061;SDS011;6597;52.218;9.882;2023-08-17T11:38:39;9.45;;;6.07;;
13061;SDS011;6597;52.218;9.882;2023-08-17T11:41:06;10.65;;;6.22;;
13061;SDS011;6597;52.218;9.882;2023-08-17T11:43:34;14.50;;;6.22;;
13061;SDS011;6597;52.218;9.882;2023-08-17T11:46:01;10.05;;;5.88;;
13061;SDS011;6597;52.218;9.882;2023-08-17T11:48:30;9.30;;;5.88;;
13061;SDS011;6597;52.218;9.882;2023-08-17T11:50:58;11.45;;;6.18;;
13061;SDS011;6597;52.218;9.882;2023-08-17T11:53:25;10.50;;;5.85;;
13061;SDS011;6597;52.218;9.882;2023-08-17T11:55:59;11.98;;;6.10;;
13061;SDS011;6597;52.218;9.882;2023-08-17T11:58:35;17.13;;;6.15;;
13061;SDS011;6597;52.218;9.882;2023-08-17T12:01:03;13.15;;;6.57;;
13061;SDS011;6597;52.218;9.882;2023-08-17T12:03:35;13.50;;;6.50;;
13061;SDS011;6597;52.218;9.882;2023-08-17T12:06:03;9.85;;;5.70;;
13061;SDS011;6597;52.218;9.882;2023-08-17T12:08:30;13.23;;;6.35;;
13061;SDS011;6597;52.218;9.882;2023-08-17T12:10:58;13.38;;;6.38;;
13061;SDS011;6597;52.218;9.882;2023-08-17T12:13:29;15.65;;;6.47;;
13061;SDS011;6597;52.218;9.882;2023-08-17T12:15:56;12.48;;;6.00;;
13061;SDS011;6597;52.218;9.882;2023-08-17T12:18:24;14.00;;;6.43;;
13061;SDS011;6597;52.218;9.882;2023-08-17T12:20:52;8.25;;;5.55;;
13061;SDS011;6597;52.218;9.882;2023-08-17T12:23:20;10.65;;;5.43;;
13061;SDS011;6597;52.218;9.882;2023-08-17T12:25:51;8.70;;;5.40;;
13061;SDS011;6597;52.218;9.882;2023-08-17T12:28:18;11.82;;;5.10;;
13061;SDS011;6597;52.218;9.882;2023-08-17T12:30:45;10.80;;;5.55;;
13061;SDS011;6597;52.218;9.882;2023-08-17T12:33:12;9.40;;;4.90;;
13061;SDS011;6597;52.218;9.882;2023-08-17T12:35:38;8.35;;;5.60;;
13061;SDS011;6597;52.218;9.882;2023-08-17T12:38:05;12.57;;;5.65;;
13061;SDS011;6597;52.218;9.882;2023-08-17T12:40:32;14.45;;;6.10;;
13061;SDS011;6597;52.218;9.882;2023-08-17T12:42:59;12.32;;;6.68;;
13061;SDS011;6597;52.218;9.882;2023-08-17T12:45:25;12.00;;;6.13;;
13061;SDS011;6597;52.218;9.882;2023-08-17T12:47:52;19.92;;;7.28;;
13061;SDS011;6597;52.218;9.882;2023-08-17T12:50:19;23.15;;;6.45;;
13061;SDS011;6597;52.218;9.882;2023-08-17T12:52:46;15.93;;;6.20;;
13061;SDS011;6597;52.218;9.882;2023-08-17T12:55:12;13.63;;;5.40;;
13061;SDS011;6597;52.218;9.882;2023-08-17T12:57:40;12.68;;;5.55;;
13061;SDS011;6597;52.218;9.882;2023-08-17T13:00:07;19.08;;;6.85;;
13061;SDS011;6597;52.218;9.882;2023-08-17T13:02:34;18.45;;;6.55;;
13061;SDS011;6597;52.218;9.882;2023-08-17T13:05:01;16.40;;;6.15;;
13061;SDS011;6597;52.218;9.882;2023-08-17T13:07:27;13.82;;;5.85;;
13061;SDS011;6597;52.218;9.882;2023-08-17T13:09:54;12.80;;;5.05;;
13061;SDS011;6597;52.218;9.882;2023-08-17T13:12:20;15.68;;;5.90;;
13061;SDS011;6597;52.218;9.882;2023-08-17T13:14:48;11.15;;;4.72;;
13061;SDS011;6597;52.218;9.882;2023-08-17T13:17:15;13.27;;;5.53;;
13061;SDS011;6597;52.218;9.882;2023-08-17T13:19:42;18.10;;;6.05;;
13061;SDS011;6597;52.218;9.882;2023-08-17T13:22:09;13.90;;;5.82;;
13061;SDS011;6597;52.218;9.882;2023-08-17T13:24:35;16.63;;;5.63;;
13061;SDS011;6597;52.218;9.882;2023-08-17T13:27:03;13.07;;;6.07;;
13061;SDS011;6597;52.218;9.882;2023-08-17T13:29:29;19.50;;;6.95;;
13061;SDS011;6597;52.218;9.882;2023-08-17T13:31:57;16.08;;;6.68;;
13061;SDS011;6597;52.218;9.882;2023-08-17T13:34:24;17.75;;;6.28;;
13061;SDS011;6597;52.218;9.882;2023-08-17T13:36:50;14.07;;;5.63;;
13061;SDS011;6597;52.218;9.882;2023-08-17T13:39:17;12.50;;;5.30;;
13061;SDS011;6597;52.218;9.882;2023-08-17T13:41:43;12.70;;;5.18;;
13061;SDS011;6597;52.218;9.882;2023-08-17T13:44:10;20.40;;;7.18;;
13061;SDS011;6597;52.218;9.882;2023-08-17T13:46:36;19.02;;;6.40;;
13061;SDS011;6597;52.218;9.882;2023-08-17T13:49:04;14.88;;;6.05;;
13061;SDS011;6597;52.218;9.882;2023-08-17T13:51:31;20.67;;;7.25;;
13061;SDS011;6597;52.218;9.882;2023-08-17T13:53:58;19.27;;;7.45;;
13061;SDS011;6597;52.218;9.882;2023-08-17T13:56:24;16.27;;;6.57;;
13061;SDS011;6597;52.218;9.882;2023-08-17T13:58:51;19.65;;;7.82;;
13061;SDS011;6597;52.218;9.882;2023-08-17T14:01:17;24.77;;;8.05;;
13061;SDS011;6597;52.218;9.882;2023-08-17T14:03:44;18.65;;;7.15;;
13061;SDS011;6597;52.218;9.882;2023-08-17T14:06:12;19.25;;;7.53;;
13061;SDS011;6597;52.218;9.882;2023-08-17T14:08:39;23.17;;;7.60;;
13061;SDS011;6597;52.218;9.882;2023-08-17T14:11:05;16.58;;;7.03;;
13061;SDS011;6597;52.218;9.882;2023-08-17T14:13:32;30.35;;;9.90;;
13061;SDS011;6597;52.218;9.882;2023-08-17T14:15:59;18.65;;;7.60;;
13061;SDS011;6597;52.218;9.882;2023-08-17T14:18:25;20.50;;;7.80;;
13061;SDS011;6597;52.218;9.882;2023-08-17T14:20:52;27.38;;;8.65;;
13061;SDS011;6597;52.218;9.882;2023-08-17T14:23:20;21.98;;;8.15;;
13061;SDS011;6597;52.218;9.882;2023-08-17T14:25:46;20.70;;;8.60;;
13061;SDS011;6597;52.218;9.882;2023-08-17T14:28:13;18.75;;;7.82;;
13061;SDS011;6597;52.218;9.882;2023-08-17T14:30:39;19.67;;;8.20;;
13061;SDS011;6597;52.218;9.882;2023-08-17T14:33:06;16.77;;;8.57;;
13061;SDS011;6597;52.218;9.882;2023-08-17T14:35:33;18.95;;;8.38;;
13061;SDS011;6597;52.218;9.882;2023-08-17T14:38:00;18.63;;;7.97;;
13061;SDS011;6597;52.218;9.882;2023-08-17T14:43:15;17.55;;;7.80;;
13061;SDS011;6597;52.218;9.882;2023-08-17T14:45:42;19.40;;;8.77;;
13061;SDS011;6597;52.218;9.882;2023-08-17T14:48:09;22.42;;;8.18;;
13061;SDS011;6597;52.218;9.882;2023-08-17T14:50:36;14.50;;;7.57;;
13061;SDS011;6597;52.218;9.882;2023-08-17T14:53:03;19.90;;;8.05;;
13061;SDS011;6597;52.218;9.882;2023-08-17T14:55:31;14.57;;;7.50;;
13061;SDS011;6597;52.218;9.882;2023-08-17T14:58:00;25.55;;;9.65;;
13061;SDS011;6597;52.218;9.882;2023-08-17T15:00:27;20.92;;;8.95;;
13061;SDS011;6597;52.218;9.882;2023-08-17T15:02:55;23.00;;;9.65;;
13061;SDS011;6597;52.218;9.882;2023-08-17T15:05:22;21.63;;;7.70;;